sensor_id;sensor_type;location;lat;lon;timestamp;temperature;humidity
1704;DHT22;849;48.780;9.216;2023-11-19T00:01:34;10.40;99.90
1704;DHT22;849;48.780;9.216;2023-11-19T00:04:18;10.40;99.90
1704;DHT22;849;48.780;9.216;2023-11-19T00:07:02;10.20;99.90
1704;DHT22;849;48.780;9.216;2023-11-19T00:09:48;10.30;99.90
1704;DHT22;849;48.780;9.216;2023-11-19T00:12:32;10.40;99.90
1704;DHT22;849;48.780;9.216;2023-11-19T00:15:17;10.50;99.90
1704;DHT22;849;48.780;9.216;2023-11-19T00:18:02;10.50;99.90
1704;DHT22;849;48.780;9.216;2023-11-19T00:20:48;10.60;99.90
1704;DHT22;849;48.780;9.216;2023-11-19T00:23:32;10.60;99.90
1704;DHT22;849;48.780;9.216;2023-11-19T00:26:16;10.60;99.90
1704;DHT22;849;48.780;9.216;2023-11-19T00:29:00;10.60;99.90
1704;DHT22;849;48.780;9.216;2023-11-19T00:31:45;10.60;99.90
1704;DHT22;849;48.780;9.216;2023-11-19T00:34:29;10.60;99.90
1704;DHT22;849;48.780;9.216;2023-11-19T00:37:13;10.60;99.90
1704;DHT22;849;48.780;9.216;2023-11-19T00:39:58;10.60;99.90
1704;DHT22;849;48.780;9.216;2023-11-19T00:42:42;10.60;99.90
1704;DHT22;849;48.780;9.216;2023-11-19T00:45:26;10.60;99.90
1704;DHT22;849;48.780;9.216;2023-11-19T00:48:11;10.60;99.90
1704;DHT22;849;48.780;9.216;2023-11-19T00:50:55;10.60;99.90
1704;DHT22;849;48.780;9.216;2023-11-19T00:53:40;10.60;99.90
1704;DHT22;849;48.780;9.216;2023-11-19T00:56:24;10.60;99.90
1704;DHT22;849;48.780;9.216;2023-11-19T00:59:08;10.70;99.90
1704;DHT22;849;48.780;9.216;2023-11-19T01:01:52;10.80;99.90
1704;DHT22;849;48.780;9.216;2023-11-19T01:04:36;10.70;99.90
1704;DHT22;849;48.780;9.216;2023-11-19T01:07:20;10.70;99.90
1704;DHT22;849;48.780;9.216;2023-11-19T01:10:06;10.60;99.90
1704;DHT22;849;48.780;9.216;2023-11-19T01:12:51;10.60;99.90
1704;DHT22;849;48.780;9.216;2023-11-19T01:15:35;10.70;99.90
1704;DHT22;849;48.780;9.216;2023-11-19T01:18:20;10.70;99.90
1704;DHT22;849;48.780;9.216;2023-11-19T01:21:04;10.70;99.90
1704;DHT22;849;48.780;9.216;2023-11-19T01:23:48;10.60;99.90
1704;DHT22;849;48.780;9.216;2023-11-19T01:26:32;10.70;99.90
1704;DHT22;849;48.780;9.216;2023-11-19T01:29:16;10.80;99.90
1704;DHT22;849;48.780;9.216;2023-11-19T01:32:01;10.80;99.90
1704;DHT22;849;48.780;9.216;2023-11-19T01:34:45;10.80;99.90
1704;DHT22;849;48.780;9.216;2023-11-19T01:37:29;10.80;99.90
1704;DHT22;849;48.780;9.216;2023-11-19T01:40:13;10.90;99.90
1704;DHT22;849;48.780;9.216;2023-11-19T01:42:57;10.90;99.90
1704;DHT22;849;48.780;9.216;2023-11-19T01:45:41;10.90;99.90
1704;DHT22;849;48.780;9.216;2023-11-19T01:48:26;11.00;99.90
1704;DHT22;849;48.780;9.216;2023-11-19T01:51:10;11.10;99.90
1704;DHT22;849;48.780;9.216;2023-11-19T01:53:55;11.40;99.90
1704;DHT22;849;48.780;9.216;2023-11-19T01:56:40;11.20;99.90
1704;DHT22;849;48.780;9.216;2023-11-19T01:59:24;11.20;99.90
1704;DHT22;849;48.780;9.216;2023-11-19T02:02:10;11.20;99.90
1704;DHT22;849;48.780;9.216;2023-11-19T02:04:56;11.20;99.90
1704;DHT22;849;48.780;9.216;2023-11-19T02:07:41;11.20;99.90
1704;DHT22;849;48.780;9.216;2023-11-19T02:10:25;11.20;99.90
1704;DHT22;849;48.780;9.216;2023-11-19T02:13:09;11.30;99.90
1704;DHT22;849;48.780;9.216;2023-11-19T02:15:54;11.30;99.90
1704;DHT22;849;48.780;9.216;2023-11-19T02:18:38;11.30;99.90
1704;DHT22;849;48.780;9.216;2023-11-19T02:21:22;11.30;99.90
1704;DHT22;849;48.780;9.216;2023-11-19T02:24:08;11.30;99.90
1704;DHT22;849;48.780;9.216;2023-11-19T02:27:02;11.30;99.90
1704;DHT22;849;48.780;9.216;2023-11-19T02:29:46;11.30;99.90
1704;DHT22;849;48.780;9.216;2023-11-19T02:32:31;11.30;99.90
1704;DHT22;849;48.780;9.216;2023-11-19T02:35:15;11.20;99.90
1704;DHT22;849;48.780;9.216;2023-11-19T02:37:59;11.20;99.90
1704;DHT22;849;48.780;9.216;2023-11-19T02:40:53;11.30;99.90
1704;DHT22;849;48.780;9.216;2023-11-19T02:43:37;11.30;99.90
1704;DHT22;849;48.780;9.216;2023-11-19T02:46:22;11.30;99.90
1704;DHT22;849;48.780;9.216;2023-11-19T02:49:06;11.30;99.90
1704;DHT22;849;48.780;9.216;2023-11-19T02:51:51;11.40;99.90
1704;DHT22;849;48.780;9.216;2023-11-19T02:54:35;11.40;99.90
1704;DHT22;849;48.780;9.216;2023-11-19T02:57:19;11.40;99.90
1704;DHT22;849;48.780;9.216;2023-11-19T03:00:04;11.30;99.90
1704;DHT22;849;48.780;9.216;2023-11-19T03:02:56;11.30;99.90
1704;DHT22;849;48.780;9.216;2023-11-19T03:05:43;11.30;99.90
1704;DHT22;849;48.780;9.216;2023-11-19T03:08:28;11.20;99.90
1704;DHT22;849;48.780;9.216;2023-11-19T03:11:13;11.20;99.90
1704;DHT22;849;48.780;9.216;2023-11-19T03:13:57;11.30;99.90
1704;DHT22;849;48.780;9.216;2023-11-19T03:16:44;11.40;99.90
1704;DHT22;849;48.780;9.216;2023-11-19T03:19:28;11.40;99.90
1704;DHT22;849;48.780;9.216;2023-11-19T03:22:12;11.50;99.90
1704;DHT22;849;48.780;9.216;2023-11-19T03:24:57;11.50;99.90
1704;DHT22;849;48.780;9.216;2023-11-19T03:27:41;11.50;99.90
1704;DHT22;849;48.780;9.216;2023-11-19T03:30:28;11.50;99.90
1704;DHT22;849;48.780;9.216;2023-11-19T03:33:13;11.60;99.90
1704;DHT22;849;48.780;9.216;2023-11-19T03:35:57;11.60;99.90
1704;DHT22;849;48.780;9.216;2023-11-19T03:38:41;11.60;99.90
1704;DHT22;849;48.780;9.216;2023-11-19T03:41:26;11.50;99.90
1704;DHT22;849;48.780;9.216;2023-11-19T03:44:10;11.50;99.90
1704;DHT22;849;48.780;9.216;2023-11-19T03:46:54;11.50;99.90
1704;DHT22;849;48.780;9.216;2023-11-19T03:49:39;11.50;99.90
1704;DHT22;849;48.780;9.216;2023-11-19T03:52:23;11.50;99.90
1704;DHT22;849;48.780;9.216;2023-11-19T03:55:07;11.50;99.90
1704;DHT22;849;48.780;9.216;2023-11-19T03:57:52;11.50;99.90
1704;DHT22;849;48.780;9.216;2023-11-19T04:00:36;11.70;99.90
1704;DHT22;849;48.780;9.216;2023-11-19T04:03:21;11.60;99.90
1704;DHT22;849;48.780;9.216;2023-11-19T04:06:05;11.60;99.90
1704;DHT22;849;48.780;9.216;2023-11-19T04:08:49;11.70;99.90
1704;DHT22;849;48.780;9.216;2023-11-19T04:11:35;11.70;99.90
1704;DHT22;849;48.780;9.216;2023-11-19T04:14:19;11.70;99.90
1704;DHT22;849;48.780;9.216;2023-11-19T04:17:03;11.70;99.90
1704;DHT22;849;48.780;9.216;2023-11-19T04:19:47;11.70;99.90
1704;DHT22;849;48.780;9.216;2023-11-19T04:22:32;11.70;99.90
1704;DHT22;849;48.780;9.216;2023-11-19T04:25:16;11.80;99.90
1704;DHT22;849;48.780;9.216;2023-11-19T04:28:00;11.70;99.90
1704;DHT22;849;48.780;9.216;2023-11-19T04:30:44;11.80;99.90
1704;DHT22;849;48.780;9.216;2023-11-19T04:33:29;11.80;99.90
1704;DHT22;849;48.780;9.216;2023-11-19T04:36:13;11.90;99.90
1704;DHT22;849;48.780;9.216;2023-11-19T04:39:03;12.00;99.90
1704;DHT22;849;48.780;9.216;2023-11-19T04:41:53;12.00;99.90
1704;DHT22;849;48.780;9.216;2023-11-19T04:44:37;12.00;99.90
1704;DHT22;849;48.780;9.216;2023-11-19T04:47:22;12.10;99.90
1704;DHT22;849;48.780;9.216;2023-11-19T04:50:06;12.20;99.90
1704;DHT22;849;48.780;9.216;2023-11-19T04:52:50;12.20;99.90
1704;DHT22;849;48.780;9.216;2023-11-19T04:55:34;12.20;99.90
1704;DHT22;849;48.780;9.216;2023-11-19T04:58:18;12.30;99.90
1704;DHT22;849;48.780;9.216;2023-11-19T05:01:03;12.30;99.90
1704;DHT22;849;48.780;9.216;2023-11-19T05:03:48;12.30;99.90
1704;DHT22;849;48.780;9.216;2023-11-19T05:06:32;12.30;99.90
1704;DHT22;849;48.780;9.216;2023-11-19T05:09:16;12.30;99.90
1704;DHT22;849;48.780;9.216;2023-11-19T05:12:01;12.40;99.90
1704;DHT22;849;48.780;9.216;2023-11-19T05:14:45;12.40;99.90
1704;DHT22;849;48.780;9.216;2023-11-19T05:17:34;12.50;99.90
1704;DHT22;849;48.780;9.216;2023-11-19T05:20:18;12.50;99.90
1704;DHT22;849;48.780;9.216;2023-11-19T05:23:02;12.60;99.90
1704;DHT22;849;48.780;9.216;2023-11-19T05:25:46;12.60;99.90
1704;DHT22;849;48.780;9.216;2023-11-19T05:28:31;12.70;99.90
1704;DHT22;849;48.780;9.216;2023-11-19T05:31:16;12.60;99.90
1704;DHT22;849;48.780;9.216;2023-11-19T05:34:00;12.60;99.90
1704;DHT22;849;48.780;9.216;2023-11-19T05:36:45;12.60;99.90
1704;DHT22;849;48.780;9.216;2023-11-19T05:39:29;12.70;99.90
1704;DHT22;849;48.780;9.216;2023-11-19T05:42:14;12.70;99.90
1704;DHT22;849;48.780;9.216;2023-11-19T05:44:58;12.60;99.90
1704;DHT22;849;48.780;9.216;2023-11-19T05:47:42;12.70;99.90
1704;DHT22;849;48.780;9.216;2023-11-19T05:50:26;12.70;99.90
1704;DHT22;849;48.780;9.216;2023-11-19T05:53:11;12.70;99.90
1704;DHT22;849;48.780;9.216;2023-11-19T05:55:57;12.80;99.90
1704;DHT22;849;48.780;9.216;2023-11-19T05:58:41;12.80;99.90
1704;DHT22;849;48.780;9.216;2023-11-19T06:01:29;12.80;99.90
1704;DHT22;849;48.780;9.216;2023-11-19T06:04:13;12.80;99.90
1704;DHT22;849;48.780;9.216;2023-11-19T06:06:57;12.90;99.90
1704;DHT22;849;48.780;9.216;2023-11-19T06:09:41;12.90;99.90
1704;DHT22;849;48.780;9.216;2023-11-19T06:12:26;12.90;99.90
1704;DHT22;849;48.780;9.216;2023-11-19T06:15:11;12.90;99.90
1704;DHT22;849;48.780;9.216;2023-11-19T06:17:55;13.00;99.90
1704;DHT22;849;48.780;9.216;2023-11-19T06:20:41;12.90;99.90
1704;DHT22;849;48.780;9.216;2023-11-19T06:23:25;13.00;99.90
1704;DHT22;849;48.780;9.216;2023-11-19T06:26:10;13.00;99.90
1704;DHT22;849;48.780;9.216;2023-11-19T06:28:54;13.00;99.90
1704;DHT22;849;48.780;9.216;2023-11-19T06:31:40;12.90;99.90
1704;DHT22;849;48.780;9.216;2023-11-19T06:34:24;13.00;99.90
1704;DHT22;849;48.780;9.216;2023-11-19T06:37:08;13.00;99.90
1704;DHT22;849;48.780;9.216;2023-11-19T06:39:52;13.00;99.90
1704;DHT22;849;48.780;9.216;2023-11-19T06:42:37;13.00;99.90
1704;DHT22;849;48.780;9.216;2023-11-19T06:45:21;13.10;99.90
1704;DHT22;849;48.780;9.216;2023-11-19T06:48:05;13.10;99.90
1704;DHT22;849;48.780;9.216;2023-11-19T06:50:49;13.30;99.90
1704;DHT22;849;48.780;9.216;2023-11-19T06:53:34;13.20;99.90
1704;DHT22;849;48.780;9.216;2023-11-19T06:56:21;13.10;99.90
1704;DHT22;849;48.780;9.216;2023-11-19T06:59:06;13.20;99.90
1704;DHT22;849;48.780;9.216;2023-11-19T07:01:50;13.20;99.90
1704;DHT22;849;48.780;9.216;2023-11-19T07:04:34;13.10;99.90
1704;DHT22;849;48.780;9.216;2023-11-19T07:07:18;13.10;99.90
1704;DHT22;849;48.780;9.216;2023-11-19T07:10:03;13.10;99.90
1704;DHT22;849;48.780;9.216;2023-11-19T07:12:50;13.10;99.90
1704;DHT22;849;48.780;9.216;2023-11-19T07:15:34;13.10;99.90
1704;DHT22;849;48.780;9.216;2023-11-19T07:18:19;13.10;99.90
1704;DHT22;849;48.780;9.216;2023-11-19T07:21:06;13.10;99.90
1704;DHT22;849;48.780;9.216;2023-11-19T07:23:51;13.10;99.90
1704;DHT22;849;48.780;9.216;2023-11-19T07:26:36;13.10;99.90
1704;DHT22;849;48.780;9.216;2023-11-19T07:29:21;13.10;99.90
1704;DHT22;849;48.780;9.216;2023-11-19T07:32:05;13.20;99.90
1704;DHT22;849;48.780;9.216;2023-11-19T07:34:49;13.20;99.90
1704;DHT22;849;48.780;9.216;2023-11-19T07:37:34;13.20;99.90
1704;DHT22;849;48.780;9.216;2023-11-19T07:40:18;13.20;99.90
1704;DHT22;849;48.780;9.216;2023-11-19T07:43:03;13.20;99.90
1704;DHT22;849;48.780;9.216;2023-11-19T07:45:47;13.20;99.90
1704;DHT22;849;48.780;9.216;2023-11-19T07:48:31;13.20;99.90
1704;DHT22;849;48.780;9.216;2023-11-19T07:51:16;13.30;99.90
1704;DHT22;849;48.780;9.216;2023-11-19T07:54:00;13.40;99.90
1704;DHT22;849;48.780;9.216;2023-11-19T07:56:44;13.40;99.90
1704;DHT22;849;48.780;9.216;2023-11-19T07:59:28;13.40;99.90
1704;DHT22;849;48.780;9.216;2023-11-19T08:02:13;13.40;99.90
1704;DHT22;849;48.780;9.216;2023-11-19T08:04:58;13.40;99.90
1704;DHT22;849;48.780;9.216;2023-11-19T08:07:42;13.50;99.90
1704;DHT22;849;48.780;9.216;2023-11-19T08:10:26;13.50;99.90
1704;DHT22;849;48.780;9.216;2023-11-19T08:13:11;13.50;99.90
1704;DHT22;849;48.780;9.216;2023-11-19T08:15:55;13.60;99.90
1704;DHT22;849;48.780;9.216;2023-11-19T08:18:41;13.60;99.90
1704;DHT22;849;48.780;9.216;2023-11-19T08:21:25;13.70;99.90
1704;DHT22;849;48.780;9.216;2023-11-19T08:24:11;13.70;99.90
1704;DHT22;849;48.780;9.216;2023-11-19T08:26:55;13.70;99.90
1704;DHT22;849;48.780;9.216;2023-11-19T08:29:39;13.70;99.90
1704;DHT22;849;48.780;9.216;2023-11-19T08:32:27;13.80;99.90
1704;DHT22;849;48.780;9.216;2023-11-19T08:35:11;13.80;99.90
1704;DHT22;849;48.780;9.216;2023-11-19T08:37:55;13.90;99.90
1704;DHT22;849;48.780;9.216;2023-11-19T08:40:40;13.90;99.90
1704;DHT22;849;48.780;9.216;2023-11-19T08:43:25;13.90;99.90
1704;DHT22;849;48.780;9.216;2023-11-19T08:46:10;13.90;99.90
1704;DHT22;849;48.780;9.216;2023-11-19T08:48:55;14.00;99.90
1704;DHT22;849;48.780;9.216;2023-11-19T08:51:41;14.10;99.90
1704;DHT22;849;48.780;9.216;2023-11-19T08:54:25;14.10;99.90
1704;DHT22;849;48.780;9.216;2023-11-19T08:57:10;14.20;99.90
1704;DHT22;849;48.780;9.216;2023-11-19T08:59:54;14.20;99.90
1704;DHT22;849;48.780;9.216;2023-11-19T09:02:38;14.20;99.90
1704;DHT22;849;48.780;9.216;2023-11-19T09:05:22;14.30;99.90
1704;DHT22;849;48.780;9.216;2023-11-19T09:08:06;14.20;99.90
1704;DHT22;849;48.780;9.216;2023-11-19T09:10:51;14.30;99.90
1704;DHT22;849;48.780;9.216;2023-11-19T09:13:35;14.30;99.90
1704;DHT22;849;48.780;9.216;2023-11-19T09:16:19;14.30;99.90
1704;DHT22;849;48.780;9.216;2023-11-19T09:19:03;14.30;99.90
1704;DHT22;849;48.780;9.216;2023-11-19T09:21:48;14.40;99.90
1704;DHT22;849;48.780;9.216;2023-11-19T09:24:32;14.50;99.90
1704;DHT22;849;48.780;9.216;2023-11-19T09:27:17;14.60;99.90
1704;DHT22;849;48.780;9.216;2023-11-19T09:30:01;14.60;99.90
1704;DHT22;849;48.780;9.216;2023-11-19T09:32:45;14.60;99.90
1704;DHT22;849;48.780;9.216;2023-11-19T09:35:29;14.70;99.90
1704;DHT22;849;48.780;9.216;2023-11-19T09:38:13;14.70;99.90
1704;DHT22;849;48.780;9.216;2023-11-19T09:40:58;14.80;99.90
1704;DHT22;849;48.780;9.216;2023-11-19T09:43:43;14.80;99.90
1704;DHT22;849;48.780;9.216;2023-11-19T09:46:27;14.80;99.90
1704;DHT22;849;48.780;9.216;2023-11-19T09:49:12;14.90;99.90
1704;DHT22;849;48.780;9.216;2023-11-19T09:51:57;15.00;99.90
1704;DHT22;849;48.780;9.216;2023-11-19T09:54:41;15.00;99.90
1704;DHT22;849;48.780;9.216;2023-11-19T09:57:25;15.00;99.90
1704;DHT22;849;48.780;9.216;2023-11-19T10:00:09;15.00;99.90
1704;DHT22;849;48.780;9.216;2023-11-19T10:02:55;15.00;99.90
1704;DHT22;849;48.780;9.216;2023-11-19T10:05:41;15.10;99.90
1704;DHT22;849;48.780;9.216;2023-11-19T10:08:25;15.20;99.90
1704;DHT22;849;48.780;9.216;2023-11-19T10:11:10;15.20;99.90
1704;DHT22;849;48.780;9.216;2023-11-19T10:13:57;15.30;99.90
1704;DHT22;849;48.780;9.216;2023-11-19T10:16:41;15.40;99.90
1704;DHT22;849;48.780;9.216;2023-11-19T10:19:28;15.40;99.90
1704;DHT22;849;48.780;9.216;2023-11-19T10:22:13;15.40;99.90
1704;DHT22;849;48.780;9.216;2023-11-19T10:25:00;15.50;99.90
1704;DHT22;849;48.780;9.216;2023-11-19T10:27:44;15.60;99.90
1704;DHT22;849;48.780;9.216;2023-11-19T10:30:29;15.60;99.90
1704;DHT22;849;48.780;9.216;2023-11-19T10:33:13;15.70;99.90
1704;DHT22;849;48.780;9.216;2023-11-19T10:36:04;15.60;99.90
1704;DHT22;849;48.780;9.216;2023-11-19T10:38:55;15.60;99.90
1704;DHT22;849;48.780;9.216;2023-11-19T10:41:40;15.60;99.90
1704;DHT22;849;48.780;9.216;2023-11-19T10:44:31;15.50;99.90
1704;DHT22;849;48.780;9.216;2023-11-19T10:47:20;15.60;99.90
1704;DHT22;849;48.780;9.216;2023-11-19T10:50:06;15.70;99.90
1704;DHT22;849;48.780;9.216;2023-11-19T10:52:52;15.60;99.90
1704;DHT22;849;48.780;9.216;2023-11-19T10:55:39;15.60;99.90
1704;DHT22;849;48.780;9.216;2023-11-19T10:58:23;15.60;99.90
1704;DHT22;849;48.780;9.216;2023-11-19T11:01:13;15.70;99.90
1704;DHT22;849;48.780;9.216;2023-11-19T11:04:00;15.70;99.90
1704;DHT22;849;48.780;9.216;2023-11-19T11:06:45;15.80;99.90
1704;DHT22;849;48.780;9.216;2023-11-19T11:09:30;15.90;99.90
1704;DHT22;849;48.780;9.216;2023-11-19T11:12:15;16.30;99.90
1704;DHT22;849;48.780;9.216;2023-11-19T11:15:01;16.00;99.90
1704;DHT22;849;48.780;9.216;2023-11-19T11:17:46;16.40;99.90
1704;DHT22;849;48.780;9.216;2023-11-19T11:20:30;16.40;99.90
1704;DHT22;849;48.780;9.216;2023-11-19T11:37:44;16.10;99.90
1704;DHT22;849;48.780;9.216;2023-11-19T11:40:30;16.00;99.90
1704;DHT22;849;48.780;9.216;2023-11-19T11:49:24;16.00;99.90
1704;DHT22;849;48.780;9.216;2023-11-19T11:52:09;16.10;99.90
1704;DHT22;849;48.780;9.216;2023-11-19T11:55:02;16.40;99.90
1704;DHT22;849;48.780;9.216;2023-11-19T11:57:46;16.10;99.90
1704;DHT22;849;48.780;9.216;2023-11-19T12:00:40;16.20;99.90
1704;DHT22;849;48.780;9.216;2023-11-19T12:03:26;16.30;99.90
1704;DHT22;849;48.780;9.216;2023-11-19T12:06:11;16.20;99.90
1704;DHT22;849;48.780;9.216;2023-11-19T12:08:59;16.30;99.90
1704;DHT22;849;48.780;9.216;2023-11-19T12:11:47;16.30;99.90
1704;DHT22;849;48.780;9.216;2023-11-19T12:20:19;16.40;99.90
1704;DHT22;849;48.780;9.216;2023-11-19T12:23:04;16.40;99.90
1704;DHT22;849;48.780;9.216;2023-11-19T12:25:48;16.40;99.90
1704;DHT22;849;48.780;9.216;2023-11-19T12:28:33;16.50;99.90
1704;DHT22;849;48.780;9.216;2023-11-19T12:31:17;16.40;99.90
1704;DHT22;849;48.780;9.216;2023-11-19T12:34:06;16.50;99.90
1704;DHT22;849;48.780;9.216;2023-11-19T12:36:51;16.50;99.90
1704;DHT22;849;48.780;9.216;2023-11-19T12:39:35;16.50;99.90
1704;DHT22;849;48.780;9.216;2023-11-19T12:42:19;16.50;99.90
1704;DHT22;849;48.780;9.216;2023-11-19T12:45:04;16.40;99.90
1704;DHT22;849;48.780;9.216;2023-11-19T12:47:48;16.40;99.90
1704;DHT22;849;48.780;9.216;2023-11-19T12:53:51;16.30;99.90
1704;DHT22;849;48.780;9.216;2023-11-19T12:56:38;16.30;99.90
1704;DHT22;849;48.780;9.216;2023-11-19T12:59:22;16.30;99.90
1704;DHT22;849;48.780;9.216;2023-11-19T13:02:06;16.30;99.90
1704;DHT22;849;48.780;9.216;2023-11-19T13:04:50;16.30;99.60
1704;DHT22;849;48.780;9.216;2023-11-19T13:07:34;16.30;99.90
1704;DHT22;849;48.780;9.216;2023-11-19T13:10:19;16.30;99.50
1704;DHT22;849;48.780;9.216;2023-11-19T13:13:07;16.30;99.90
1704;DHT22;849;48.780;9.216;2023-11-19T13:15:52;16.30;99.60
1704;DHT22;849;48.780;9.216;2023-11-19T13:18:36;16.30;98.90
1704;DHT22;849;48.780;9.216;2023-11-19T13:21:20;16.30;99.90
1704;DHT22;849;48.780;9.216;2023-11-19T13:24:05;16.30;97.70
1704;DHT22;849;48.780;9.216;2023-11-19T13:26:50;16.30;96.80
1704;DHT22;849;48.780;9.216;2023-11-19T13:29:34;16.40;96.40
1704;DHT22;849;48.780;9.216;2023-11-19T13:32:19;16.40;94.90
1704;DHT22;849;48.780;9.216;2023-11-19T13:35:03;16.40;95.90
1704;DHT22;849;48.780;9.216;2023-11-19T13:37:48;16.40;94.50
1704;DHT22;849;48.780;9.216;2023-11-19T13:40:32;16.40;94.50
1704;DHT22;849;48.780;9.216;2023-11-19T13:43:16;16.40;95.20
1704;DHT22;849;48.780;9.216;2023-11-19T13:46:01;16.40;95.50
1704;DHT22;849;48.780;9.216;2023-11-19T13:48:45;16.50;95.20
1704;DHT22;849;48.780;9.216;2023-11-19T13:51:29;16.40;95.80
1704;DHT22;849;48.780;9.216;2023-11-19T13:54:13;16.40;96.00
1704;DHT22;849;48.780;9.216;2023-11-19T13:56:58;16.40;95.20
1704;DHT22;849;48.780;9.216;2023-11-19T13:59:42;16.20;95.80
1704;DHT22;849;48.780;9.216;2023-11-19T14:02:27;16.10;96.00
1704;DHT22;849;48.780;9.216;2023-11-19T14:05:11;16.10;96.80
1704;DHT22;849;48.780;9.216;2023-11-19T14:07:55;16.10;95.80
1704;DHT22;849;48.780;9.216;2023-11-19T14:10:40;16.10;95.60
1704;DHT22;849;48.780;9.216;2023-11-19T14:13:24;16.20;95.50
1704;DHT22;849;48.780;9.216;2023-11-19T14:16:08;16.10;94.20
1704;DHT22;849;48.780;9.216;2023-11-19T14:18:53;16.10;93.00
1704;DHT22;849;48.780;9.216;2023-11-19T14:21:39;16.10;92.80
1704;DHT22;849;48.780;9.216;2023-11-19T14:24:23;16.10;93.20
1704;DHT22;849;48.780;9.216;2023-11-19T14:27:11;16.10;93.30
1704;DHT22;849;48.780;9.216;2023-11-19T14:29:55;16.00;92.90
1704;DHT22;849;48.780;9.216;2023-11-19T14:32:41;16.00;93.30
1704;DHT22;849;48.780;9.216;2023-11-19T14:35:26;16.00;93.70
1704;DHT22;849;48.780;9.216;2023-11-19T14:38:10;15.90;93.70
1704;DHT22;849;48.780;9.216;2023-11-19T14:40:54;15.90;93.20
1704;DHT22;849;48.780;9.216;2023-11-19T14:43:39;15.80;93.50
1704;DHT22;849;48.780;9.216;2023-11-19T14:46:23;15.90;93.70
1704;DHT22;849;48.780;9.216;2023-11-19T14:49:07;15.80;94.00
1704;DHT22;849;48.780;9.216;2023-11-19T14:51:51;15.90;94.60
1704;DHT22;849;48.780;9.216;2023-11-19T14:54:36;15.80;94.30
1704;DHT22;849;48.780;9.216;2023-11-19T14:57:22;15.70;95.20
1704;DHT22;849;48.780;9.216;2023-11-19T15:00:06;15.70;95.80
1704;DHT22;849;48.780;9.216;2023-11-19T15:02:56;15.70;96.00
1704;DHT22;849;48.780;9.216;2023-11-19T15:05:40;15.70;96.50
1704;DHT22;849;48.780;9.216;2023-11-19T15:08:27;15.70;96.80
1704;DHT22;849;48.780;9.216;2023-11-19T15:11:11;15.60;96.50
1704;DHT22;849;48.780;9.216;2023-11-19T15:13:56;15.50;96.10
1704;DHT22;849;48.780;9.216;2023-11-19T15:16:40;15.50;96.20
1704;DHT22;849;48.780;9.216;2023-11-19T15:19:24;15.50;95.90
1704;DHT22;849;48.780;9.216;2023-11-19T15:22:08;15.50;95.90
1704;DHT22;849;48.780;9.216;2023-11-19T15:24:55;15.50;96.10
1704;DHT22;849;48.780;9.216;2023-11-19T15:27:39;15.40;95.10
1704;DHT22;849;48.780;9.216;2023-11-19T15:30:23;15.40;94.40
1704;DHT22;849;48.780;9.216;2023-11-19T15:33:09;15.40;94.80
1704;DHT22;849;48.780;9.216;2023-11-19T15:35:53;15.40;94.70
1704;DHT22;849;48.780;9.216;2023-11-19T15:38:37;15.50;94.40
1704;DHT22;849;48.780;9.216;2023-11-19T15:41:22;15.40;94.10
1704;DHT22;849;48.780;9.216;2023-11-19T15:44:06;15.40;94.60
1704;DHT22;849;48.780;9.216;2023-11-19T15:46:50;15.40;94.30
1704;DHT22;849;48.780;9.216;2023-11-19T15:49:34;15.20;94.20
1704;DHT22;849;48.780;9.216;2023-11-19T15:52:19;15.10;94.70
1704;DHT22;849;48.780;9.216;2023-11-19T15:55:04;15.10;95.60
1704;DHT22;849;48.780;9.216;2023-11-19T15:57:48;15.10;95.40
1704;DHT22;849;48.780;9.216;2023-11-19T16:00:33;15.10;95.90
1704;DHT22;849;48.780;9.216;2023-11-19T16:03:17;15.10;95.70
1704;DHT22;849;48.780;9.216;2023-11-19T16:06:01;15.00;95.80
1704;DHT22;849;48.780;9.216;2023-11-19T16:08:45;14.90;96.90
1704;DHT22;849;48.780;9.216;2023-11-19T16:11:29;15.00;96.50
1704;DHT22;849;48.780;9.216;2023-11-19T16:14:14;15.00;96.10
1704;DHT22;849;48.780;9.216;2023-11-19T16:16:58;15.00;95.90
1704;DHT22;849;48.780;9.216;2023-11-19T16:19:42;15.00;95.70
1704;DHT22;849;48.780;9.216;2023-11-19T16:22:28;15.00;96.30
1704;DHT22;849;48.780;9.216;2023-11-19T16:25:12;15.00;96.50
1704;DHT22;849;48.780;9.216;2023-11-19T16:27:59;15.20;96.80
1704;DHT22;849;48.780;9.216;2023-11-19T16:30:43;15.10;97.00
1704;DHT22;849;48.780;9.216;2023-11-19T16:33:27;15.00;97.00
1704;DHT22;849;48.780;9.216;2023-11-19T16:36:12;15.00;97.40
1704;DHT22;849;48.780;9.216;2023-11-19T16:38:57;15.00;97.60
1704;DHT22;849;48.780;9.216;2023-11-19T16:41:41;15.10;97.60
1704;DHT22;849;48.780;9.216;2023-11-19T16:44:25;15.00;98.00
1704;DHT22;849;48.780;9.216;2023-11-19T16:47:10;15.10;98.30
1704;DHT22;849;48.780;9.216;2023-11-19T16:49:54;15.10;98.60
1704;DHT22;849;48.780;9.216;2023-11-19T16:52:39;15.00;99.30
1704;DHT22;849;48.780;9.216;2023-11-19T16:55:23;14.90;99.50
1704;DHT22;849;48.780;9.216;2023-11-19T16:58:09;14.80;99.60
1704;DHT22;849;48.780;9.216;2023-11-19T17:00:56;14.80;99.90
1704;DHT22;849;48.780;9.216;2023-11-19T17:03:42;14.80;99.90
1704;DHT22;849;48.780;9.216;2023-11-19T17:06:26;14.80;99.90
1704;DHT22;849;48.780;9.216;2023-11-19T17:09:10;14.80;99.90
1704;DHT22;849;48.780;9.216;2023-11-19T17:11:56;14.70;99.90
1704;DHT22;849;48.780;9.216;2023-11-19T17:14:40;14.70;99.90
1704;DHT22;849;48.780;9.216;2023-11-19T17:17:24;14.70;99.90
1704;DHT22;849;48.780;9.216;2023-11-19T17:20:09;14.60;99.90
1704;DHT22;849;48.780;9.216;2023-11-19T17:22:54;14.60;99.90
1704;DHT22;849;48.780;9.216;2023-11-19T17:25:40;14.60;99.90
1704;DHT22;849;48.780;9.216;2023-11-19T17:28:25;14.50;99.90
1704;DHT22;849;48.780;9.216;2023-11-19T17:31:09;14.40;99.90
1704;DHT22;849;48.780;9.216;2023-11-19T17:33:53;14.40;99.90
1704;DHT22;849;48.780;9.216;2023-11-19T17:36:37;14.40;99.90
1704;DHT22;849;48.780;9.216;2023-11-19T17:39:22;14.40;99.90
1704;DHT22;849;48.780;9.216;2023-11-19T17:42:06;14.40;99.90
1704;DHT22;849;48.780;9.216;2023-11-19T17:44:50;14.40;99.90
1704;DHT22;849;48.780;9.216;2023-11-19T17:47:36;14.30;99.90
1704;DHT22;849;48.780;9.216;2023-11-19T17:50:20;14.30;99.90
1704;DHT22;849;48.780;9.216;2023-11-19T17:53:05;14.20;99.90
1704;DHT22;849;48.780;9.216;2023-11-19T17:55:49;14.20;99.90
1704;DHT22;849;48.780;9.216;2023-11-19T17:58:33;14.20;99.90
1704;DHT22;849;48.780;9.216;2023-11-19T18:01:17;14.20;99.90
1704;DHT22;849;48.780;9.216;2023-11-19T18:04:01;14.30;99.90
1704;DHT22;849;48.780;9.216;2023-11-19T18:06:45;14.30;99.90
1704;DHT22;849;48.780;9.216;2023-11-19T18:09:30;14.20;99.70
1704;DHT22;849;48.780;9.216;2023-11-19T18:12:14;14.30;99.90
1704;DHT22;849;48.780;9.216;2023-11-19T18:14:59;14.30;99.80
1704;DHT22;849;48.780;9.216;2023-11-19T18:17:43;14.20;99.60
1704;DHT22;849;48.780;9.216;2023-11-19T18:20:27;14.20;99.80
1704;DHT22;849;48.780;9.216;2023-11-19T18:23:11;14.30;99.90
1704;DHT22;849;48.780;9.216;2023-11-19T18:25:57;14.40;99.40
1704;DHT22;849;48.780;9.216;2023-11-19T18:28:41;14.40;99.70
1704;DHT22;849;48.780;9.216;2023-11-19T18:31:25;14.40;99.70
1704;DHT22;849;48.780;9.216;2023-11-19T18:34:09;14.40;99.90
1704;DHT22;849;48.780;9.216;2023-11-19T18:36:54;14.40;99.90
1704;DHT22;849;48.780;9.216;2023-11-19T18:39:42;14.40;99.90
1704;DHT22;849;48.780;9.216;2023-11-19T18:42:26;14.50;99.90